< Typhoon 202107 2021 Season Typhoon 202109 >
Typhoon 202108 (NEPARTAK)
General InformationTrack Information on Google MapsDetailed Wind InformationForecast History on Google MapsAccess Analytics MapList of All Images || NewsDisaster Info.WeblogTrackbackTyphoon FrontTwiphoonTyphoon Now!Typhoon ImaginationJMA Disaster Info. XMLResourceGoogle EarthGE AnimationAtom FeedGeoJSON
Detalied Best Track (Time Zone = UTC)
Year Month Day Hour Lat. Long. Pressure (hPa) Wind (kt) Class Image Chart
2021 7 22 12 21.5 146.1 1002 0 2 Image Chart
2021 7 22 18 21.8 147.0 1000 0 2 Image Chart
2021 7 23 00 22.4 147.9 1002 0 2 Image Chart
2021 7 23 06 23.4 148.5 1000 0 2 Image Chart
2021 7 23 12 24.2 148.8 998 35 3 Image Chart
2021 7 23 18 25.1 149.3 998 35 3 Image Chart
2021 7 24 00 25.4 149.7 996 35 3 Image Chart
2021 7 24 06 26.1 150.1 996 35 3 Image Chart
2021 7 24 12 27.6 150.6 994 40 3 Image Chart
2021 7 24 18 28.4 150.6 994 40 3 Image Chart
2021 7 25 00 29.6 150.7 994 40 3 Image Chart
2021 7 25 06 30.2 150.4 992 40 3 Image Chart
2021 7 25 12 31.1 149.8 992 40 3 Image Chart
2021 7 25 18 32.8 149.3 992 40 3 Image Chart
2021 7 26 00 33.9 147.7 992 40 3 Image Chart
2021 7 26 06 34.5 145.5 992 40 3 Image Chart
2021 7 26 12 34.4 143.7 992 40 3 Image Chart
2021 7 26 18 34.3 142.9 990 40 3 Image Chart
2021 7 27 00 34.9 142.6 990 40 3 Image Chart
2021 7 27 06 35.7 142.4 990 40 3 Image Chart
2021 7 27 12 36.6 142.4 992 35 3 Image Chart
2021 7 27 18 37.8 142.2 994 35 3 Image Chart
2021 7 27 20 38.2 141.7 994 35 3 Image Chart
2021 7 28 00 39.2 141.4 994 35 3 Image Chart
2021 7 28 06 40.4 139.8 998 0 6 Image Chart
2021 7 28 12 40.6 138.1 998 0 6 Image Chart
2021 7 28 18 40.7 137.6 998 0 6 Image Chart
2021 7 29 00 40.7 136.9 998 0 6 Image Chart
2021 7 29 06 40.7 136.6 998 0 6 Image Chart
2021 7 29 12 40.8 136.3 998 0 6 Image Chart
2021 7 29 18 40.8 136.2 998 0 6 Image Chart
2021 7 30 00 40.8 135.9 1000 0 6 Image Chart
2021 7 30 06 40.8 135.7 1000 0 6 Image Chart
2021 7 30 12 40.8 135.4 1000 0 6 Image Chart
2021 7 30 18 40.8 135.2 1000 0 6 Image Chart
2021 7 31 00 40.7 135.0 1002 0 6 Image Chart
2021 7 31 06 40.9 133.9 1002 0 6 Image Chart
Japan Meteorological Agency Best Track Data | Correction Date : 2021-11-02
< Typhoon 202107 2021 Season Typhoon 202109 >

Help